createdAt,value
2023-03-30T00:00:46.657Z,97412.00
2023-03-30T00:05:51.757Z,97392.91
2023-03-30T00:11:00.880Z,97394.69
2023-03-30T00:16:04.559Z,97378.53
2023-03-30T00:21:09.561Z,97360.91
2023-03-30T00:26:11.347Z,97339.72
2023-03-30T00:31:13.274Z,97341.16
2023-03-30T00:36:17.184Z,97331.78
2023-03-30T00:41:19.121Z,97326.13
2023-03-30T00:46:22.948Z,97314.16
2023-03-30T00:51:28.216Z,97290.94
2023-03-30T00:56:31.369Z,97286.56
2023-03-30T01:01:39.337Z,97267.00
2023-03-30T01:06:43.543Z,97255.38
2023-03-30T01:11:46.252Z,97249.38
2023-03-30T01:17:23.169Z,97244.00
2023-03-30T01:22:47.196Z,97232.38
2023-03-30T01:28:14.688Z,97238.69
2023-03-30T01:33:28.615Z,97221.41
2023-03-30T01:38:53.228Z,97213.72
2023-03-30T01:44:21.531Z,97186.81
2023-03-30T01:49:37.115Z,97195.06
2023-03-30T01:54:45.902Z,97189.03
2023-03-30T02:00:00.202Z,97194.81
2023-03-30T02:05:06.202Z,97183.47
2023-03-30T02:10:12.155Z,97170.03
2023-03-30T02:15:16.072Z,97171.84
2023-03-30T02:20:19.034Z,97162.22
2023-03-30T02:25:21.216Z,97157.47
2023-03-30T02:30:23.264Z,97153.59
2023-03-30T02:35:56.001Z,97147.13
2023-03-30T02:41:16.169Z,97131.56
2023-03-30T02:46:39.449Z,97126.16
2023-03-30T02:52:17.204Z,97117.94
2023-03-30T02:57:24.361Z,97115.84
2023-03-30T03:02:38.010Z,97116.22
2023-03-30T03:07:53.766Z,97110.81
2023-03-30T03:12:55.671Z,97108.34
2023-03-30T03:17:58.610Z,97121.16
2023-03-30T03:23:00.912Z,97116.25
2023-03-30T03:28:05.845Z,97118.97
2023-03-30T03:33:16.134Z,97108.53
2023-03-30T03:38:25.310Z,97106.34
2023-03-30T03:43:27.602Z,97121.53
2023-03-30T03:48:29.583Z,97124.34
2023-03-30T03:53:32.024Z,97120.50
2023-03-30T03:58:37.516Z,97118.34
2023-03-30T04:03:39.315Z,97117.97
2023-03-30T04:08:41.686Z,97125.72
2023-03-30T04:13:54.483Z,97133.28
2023-03-30T04:19:31.556Z,97116.09
2023-03-30T04:24:52.280Z,97120.31
2023-03-30T04:30:14.279Z,97121.78
2023-03-30T04:35:48.611Z,97116.56
2023-03-30T04:41:19.534Z,97101.75
2023-03-30T04:46:33.806Z,97103.44
2023-03-30T04:52:04.143Z,97102.28
2023-03-30T04:57:14.193Z,97090.25
2023-03-30T05:02:45.587Z,97095.06
2023-03-30T05:07:53.976Z,97088.72
2023-03-30T05:13:17.489Z,97085.19
2023-03-30T05:18:29.098Z,97083.88
2023-03-30T05:23:57.586Z,97103.72
2023-03-30T05:29:31.901Z,97107.94
2023-03-30T05:34:52.223Z,97114.34
2023-03-30T05:40:18.352Z,97122.22
2023-03-30T05:45:49.920Z,97143.03
2023-03-30T05:51:27.423Z,97150.47
2023-03-30T05:56:52.822Z,97145.09
2023-03-30T06:02:15.284Z,97162.34
2023-03-30T06:07:18.117Z,97147.28
2023-03-30T06:12:20.478Z,97147.78
2023-03-30T06:17:22.427Z,97148.91
2023-03-30T06:22:24.437Z,97132.50
2023-03-30T06:27:56.254Z,97106.97
2023-03-30T06:32:59.257Z,97094.94
2023-03-30T06:38:23.350Z,97087.06
2023-03-30T06:43:27.556Z,97082.88
2023-03-30T06:48:55.509Z,97077.31
2023-03-30T06:54:20.154Z,97075.09
2023-03-30T06:59:34.314Z,97058.66
2023-03-30T07:05:02.425Z,97055.13
2023-03-30T07:10:12.123Z,97030.72
2023-03-30T07:15:15.345Z,97015.88
2023-03-30T07:20:17.360Z,97012.28
2023-03-30T07:25:42.287Z,97018.22
2023-03-30T07:30:49.172Z,97007.25
2023-03-30T07:35:53.242Z,96998.72
2023-03-30T07:40:58.961Z,96998.25
2023-03-30T07:46:03.431Z,97019.78
2023-03-30T07:51:13.653Z,97015.53
2023-03-30T07:56:42.949Z,97018.16
2023-03-30T08:01:46.577Z,97013.47
2023-03-30T08:07:12.643Z,97021.72
2023-03-30T08:12:14.589Z,97022.19
2023-03-30T08:17:16.527Z,97025.66
2023-03-30T08:22:18.501Z,97019.94
2023-03-30T08:27:20.371Z,97034.53
2023-03-30T08:32:22.225Z,97054.31
2023-03-30T08:37:25.140Z,97068.97
2023-03-30T08:42:43.366Z,97073.22
2023-03-30T08:47:49.422Z,97100.06
2023-03-30T08:52:52.689Z,97107.84
2023-03-30T08:58:20.172Z,97099.41
2023-03-30T09:03:27.892Z,97112.00
2023-03-30T09:08:32.959Z,97114.19
2023-03-30T09:13:37.954Z,97113.72
2023-03-30T09:18:43.924Z,97117.09
2023-03-30T09:23:46.288Z,97133.28
2023-03-30T09:29:03.837Z,97140.81
2023-03-30T09:34:09.294Z,97116.78
2023-03-30T09:39:24.302Z,97120.47
2023-03-30T09:44:39.068Z,97106.47
2023-03-30T09:49:40.912Z,97105.88
2023-03-30T09:54:42.766Z,97100.47
2023-03-30T09:59:45.857Z,97088.47
2023-03-30T10:04:53.780Z,97062.09
2023-03-30T10:09:58.008Z,97043.09
2023-03-30T10:15:04.346Z,97054.28
2023-03-30T10:20:23.963Z,97063.09
2023-03-30T10:25:32.818Z,97034.50
2023-03-30T10:30:35.903Z,97038.53
2023-03-30T10:35:38.678Z,97050.34
2023-03-30T10:40:44.051Z,97072.59
2023-03-30T10:45:48.351Z,97076.88
2023-03-30T10:51:01.493Z,97074.66
2023-03-30T10:56:09.393Z,97074.47
2023-03-30T11:01:20.891Z,97063.41
2023-03-30T11:06:32.834Z,97062.13
2023-03-30T11:11:49.107Z,97056.75
2023-03-30T11:17:09.031Z,97052.75
2023-03-30T11:22:57.460Z,97048.06
2023-03-30T11:28:20.963Z,97040.03
2023-03-30T11:33:33.747Z,97046.84
2023-03-30T11:38:49.776Z,97010.25
2023-03-30T11:43:56.047Z,97012.03
2023-03-30T11:49:05.022Z,96996.50
2023-03-30T11:54:30.997Z,96978.59
2023-03-30T12:00:14.697Z,96977.66
2023-03-30T12:05:30.970Z,96986.31
2023-03-30T12:10:32.775Z,96984.09
2023-03-30T12:15:49.071Z,96972.88
2023-03-30T12:20:54.168Z,96974.19
2023-03-30T12:26:14.588Z,96967.91
2023-03-30T12:31:16.599Z,96953.13
2023-03-30T12:36:38.126Z,96951.47
2023-03-30T12:41:48.860Z,96945.94
2023-03-30T12:47:12.213Z,96938.75
2023-03-30T12:52:23.676Z,96943.19
2023-03-30T12:57:50.087Z,96966.75
2023-03-30T13:03:16.150Z,96957.38
2023-03-30T13:08:35.916Z,96931.84
2023-03-30T13:13:57.559Z,96955.00
2023-03-30T13:19:14.813Z,96948.81
2023-03-30T13:24:35.992Z,96939.94
2023-03-30T13:29:38.033Z,96953.97
2023-03-30T13:35:06.971Z,96934.22
2023-03-30T13:40:21.821Z,96920.88
2023-03-30T13:45:46.712Z,96935.22
2023-03-30T13:50:56.223Z,96920.56
2023-03-30T13:55:58.167Z,96925.22
2023-03-30T14:01:08.394Z,96923.97
2023-03-30T14:06:13.583Z,96907.06
2023-03-30T14:11:21.877Z,96913.19
2023-03-30T14:16:28.903Z,96900.31
2023-03-30T14:21:33.372Z,96894.25
2023-03-30T14:26:41.110Z,96904.72
2023-03-30T14:31:51.047Z,96895.50
2023-03-30T14:37:07.782Z,96892.09
2023-03-30T14:42:16.837Z,96894.88
2023-03-30T14:47:24.459Z,96875.06
2023-03-30T14:52:42.010Z,96886.03
2023-03-30T14:57:44.298Z,96884.31
2023-03-30T15:02:56.874Z,96891.97
2023-03-30T15:07:58.984Z,96907.84
2023-03-30T15:13:02.686Z,96996.63
2023-03-30T15:18:05.365Z,97002.22
2023-03-30T15:23:11.799Z,97020.00
2023-03-30T15:28:19.485Z,97016.66
2023-03-30T15:33:36.392Z,97038.34
2023-03-30T15:38:49.037Z,97037.91
2023-03-30T15:44:24.691Z,97029.28
2023-03-30T15:49:49.288Z,97029.38
2023-03-30T15:54:55.653Z,97014.56
2023-03-30T16:00:01.927Z,96995.16
2023-03-30T16:05:16.424Z,96998.75
2023-03-30T16:10:21.554Z,96991.91
2023-03-30T16:15:26.175Z,96992.97
2023-03-30T16:20:30.540Z,97002.97
2023-03-30T16:25:44.024Z,97000.06
2023-03-30T16:30:48.914Z,97006.72
2023-03-30T16:35:50.727Z,97014.13
2023-03-30T16:40:56.353Z,97031.78
2023-03-30T16:45:58.352Z,97027.59
2023-03-30T16:51:00.369Z,97028.06
2023-03-30T16:56:02.443Z,97030.88
2023-03-30T17:01:04.771Z,97039.69
2023-03-30T17:06:07.620Z,97040.97
2023-03-30T17:11:13.514Z,97031.72
2023-03-30T17:16:15.881Z,97023.88
2023-03-30T17:21:17.750Z,97027.66
2023-03-30T17:26:20.084Z,97038.06
2023-03-30T17:31:22.747Z,97035.38
2023-03-30T17:36:26.621Z,97045.31
2023-03-30T17:41:28.840Z,97033.06
2023-03-30T17:46:32.522Z,97040.09
2023-03-30T17:51:34.389Z,97048.28
2023-03-30T17:56:36.248Z,97058.31
2023-03-30T18:01:39.197Z,97058.59
2023-03-30T18:06:41.763Z,97065.94
2023-03-30T18:11:44.362Z,97066.03
2023-03-30T18:16:46.259Z,97068.53
2023-03-30T18:21:48.060Z,97071.22
2023-03-30T18:26:49.884Z,97069.81
2023-03-30T18:31:51.716Z,97075.25
2023-03-30T18:36:53.510Z,97076.41
2023-03-30T18:41:55.383Z,97076.50
2023-03-30T18:46:57.162Z,97079.63
2023-03-30T18:51:58.942Z,97085.97
2023-03-30T18:57:00.807Z,97087.31
2023-03-30T19:02:02.887Z,97083.38
2023-03-30T19:07:05.728Z,97086.50
2023-03-30T19:12:10.112Z,97088.03
2023-03-30T19:17:12.034Z,97083.13
2023-03-30T19:22:14.076Z,97096.22
2023-03-30T19:27:15.886Z,97095.66
2023-03-30T19:32:19.651Z,97097.31
2023-03-30T19:37:21.756Z,97092.16
2023-03-30T19:42:23.638Z,97101.59
2023-03-30T19:47:28.889Z,97096.69
2023-03-30T19:52:31.467Z,97100.63
2023-03-30T19:57:33.362Z,97102.31
2023-03-30T20:02:35.387Z,97111.59
2023-03-30T20:07:37.763Z,97110.44
2023-03-30T20:12:39.797Z,97117.31
2023-03-30T20:17:42.132Z,97118.84
2023-03-30T20:22:44.618Z,97116.28
2023-03-30T20:27:46.842Z,97117.06
2023-03-30T20:33:03.772Z,97127.09
2023-03-30T20:38:08.559Z,97131.81
2023-03-30T20:43:10.736Z,97149.41
2023-03-30T20:48:32.825Z,97139.47
2023-03-30T20:53:35.803Z,97151.75
2023-03-30T20:58:38.889Z,97144.41
2023-03-30T21:03:44.300Z,97137.91
2023-03-30T21:08:46.138Z,97142.00
2023-03-30T21:13:47.920Z,97131.03
2023-03-30T21:18:50.564Z,97126.19
2023-03-30T21:23:52.423Z,97129.50
2023-03-30T21:28:54.245Z,97125.66
2023-03-30T21:33:56.247Z,97118.69
2023-03-30T21:38:59.477Z,97104.72
2023-03-30T21:44:01.437Z,97100.19
2023-03-30T21:49:03.415Z,97097.22
2023-03-30T21:54:05.727Z,97106.63
2023-03-30T21:59:07.977Z,97101.25
2023-03-30T22:04:09.884Z,97100.44
2023-03-30T22:09:13.908Z,97091.88
2023-03-30T22:14:15.771Z,97095.97
2023-03-30T22:19:19.045Z,97088.84
2023-03-30T22:24:20.910Z,97087.13
2023-03-30T22:29:23.345Z,97078.00
2023-03-30T22:34:25.746Z,97070.59
2023-03-30T22:39:28.069Z,97070.41
2023-03-30T22:44:29.892Z,97070.94
2023-03-30T22:49:31.675Z,97071.56
2023-03-30T22:54:33.785Z,97062.78
2023-03-30T22:59:35.738Z,97064.75
2023-03-30T23:04:39.908Z,97063.94
2023-03-30T23:09:47.522Z,97053.88
2023-03-30T23:14:49.360Z,97056.91
2023-03-30T23:19:55.744Z,97056.16
2023-03-30T23:24:57.569Z,97047.50
2023-03-30T23:29:59.454Z,97049.34
2023-03-30T23:35:02.237Z,97038.47
2023-03-30T23:40:07.583Z,97021.75
2023-03-30T23:45:09.811Z,97018.66
2023-03-30T23:50:11.664Z,97013.16
2023-03-30T23:55:13.748Z,97009.84
